Time;durP1;ratioP1;P1;durP2;ratioP2;P2;SDS_P1;SDS_P2;PMS_P1;PMS_P2;Temp;Humidity;BMP_temperature;BMP_pressure;BME280_temperature;BME280_humidity;BME280_pressure;Samples;Min_cycle;Max_cycle;Signal;HPM_P1;HPM_P2
2024/01/22 00:02:12;;;;;;;5.67;4.33;;;5.50;1.00;;;;;;5013589;28;20172;-70
2024/01/22 00:04:37;;;;;;;5.43;4.70;;;5.50;1.00;;;;;;5013287;28;20540;-70
2024/01/22 00:07:03;;;;;;;4.80;4.40;;;5.50;1.00;;;;;;5013525;28;20259;-69
2024/01/22 00:09:28;;;;;;;5.07;4.63;;;5.60;1.00;;;;;;5031310;28;20268;-72
2024/01/22 00:11:54;;;;;;;5.40;4.90;;;5.60;1.00;;;;;;5032434;28;20233;-70
2024/01/22 00:14:20;;;;;;;5.63;4.93;;;5.60;1.00;;;;;;5015028;28;20207;-70
2024/01/22 00:16:46;;;;;;;5.40;4.90;;;5.60;1.00;;;;;;5012088;28;20173;-70
2024/01/22 00:19:12;;;;;;;5.70;5.20;;;5.60;1.00;;;;;;5012656;28;20191;-71
2024/01/22 00:21:42;;;;;;;5.20;4.80;;;5.60;1.00;;;;;;5012890;28;20172;-70
2024/01/22 00:24:08;;;;;;;5.13;4.73;;;5.60;1.00;;;;;;5020368;28;20186;-70
2024/01/22 00:26:34;;;;;;;4.53;4.23;;;5.70;1.00;;;;;;5032274;28;20171;-70
2024/01/22 00:28:59;;;;;;;5.50;5.00;;;5.60;1.00;;;;;;5032319;28;20191;-70
2024/01/22 00:31:25;;;;;;;5.87;5.00;;;5.70;1.00;;;;;;5032354;28;20179;-70
2024/01/22 00:33:50;;;;;;;5.30;4.90;;;5.70;1.00;;;;;;5031925;28;20274;-73
2024/01/22 00:36:16;;;;;;;4.90;4.50;;;5.70;1.00;;;;;;5032320;28;20217;-72
2024/01/22 00:38:42;;;;;;;5.57;4.87;;;5.60;1.00;;;;;;5025666;28;20202;-71
2024/01/22 00:41:08;;;;;;;5.17;4.77;;;5.70;1.00;;;;;;5012364;28;20203;-71
2024/01/22 00:43:34;;;;;;;5.00;4.60;;;5.70;1.00;;;;;;5012378;28;20176;-71
2024/01/22 00:46:01;;;;;;;4.90;4.60;;;5.70;1.00;;;;;;5017573;28;20180;-71
2024/01/22 00:48:27;;;;;;;4.70;4.40;;;5.80;1.00;;;;;;5017502;28;20219;-72
2024/01/22 00:50:53;;;;;;;5.03;4.63;;;5.70;1.00;;;;;;5026818;28;20191;-70
2024/01/22 00:53:18;;;;;;;4.80;4.20;;;5.80;1.00;;;;;;5034471;28;20239;-73
2024/01/22 00:55:44;;;;;;;6.97;4.40;;;5.90;1.00;;;;;;5035683;28;20305;-71
2024/01/22 00:58:10;;;;;;;4.60;4.20;;;6.10;1.00;;;;;;5036592;28;20191;-71
2024/01/22 01:00:35;;;;;;;4.47;4.07;;;6.20;1.00;;;;;;5035682;28;20195;-71
2024/01/22 01:03:01;;;;;;;4.37;4.07;;;6.40;1.00;;;;;;5034970;28;20180;-72
2024/01/22 01:05:27;;;;;;;4.70;3.90;;;6.50;1.00;;;;;;5021626;28;20192;-71
2024/01/22 01:07:52;;;;;;;5.20;4.50;;;6.70;1.00;;;;;;5011876;28;20258;-71
2024/01/22 01:10:18;;;;;;;4.93;4.43;;;6.80;1.00;;;;;;5011932;28;20200;-71
2024/01/22 01:12:43;;;;;;;4.13;3.83;;;6.90;1.00;;;;;;5011297;28;20515;-71
2024/01/22 01:15:09;;;;;;;4.67;4.30;;;7.00;1.00;;;;;;5011768;28;20204;-71
2024/01/22 01:17:36;;;;;;;4.43;4.00;;;7.10;99.90;;;;;;5011885;28;20168;-71
2024/01/22 01:20:03;;;;;;;4.30;4.00;;;7.10;99.90;;;;;;5031426;28;20175;-72
2024/01/22 01:22:29;;;;;;;4.40;4.00;;;7.20;99.90;;;;;;5031554;28;20159;-71
2024/01/22 01:24:55;;;;;;;5.70;4.03;;;7.30;99.90;;;;;;5030335;28;20182;-71
2024/01/22 01:27:21;;;;;;;4.33;4.10;;;7.30;1.00;;;;;;5031616;28;20167;-71
2024/01/22 01:29:46;;;;;;;6.53;3.93;;;7.40;1.00;;;;;;5031478;28;20179;-71
2024/01/22 01:32:12;;;;;;;4.10;3.80;;;7.40;1.00;;;;;;5032940;28;20186;-71
2024/01/22 01:34:37;;;;;;;4.30;4.00;;;7.50;99.90;;;;;;5011712;28;20279;-72
2024/01/22 01:37:04;;;;;;;4.60;4.20;;;7.50;34.10;;;;;;5011811;28;20232;-73
2024/01/22 01:39:29;;;;;;;4.53;4.10;;;7.60;1.00;;;;;;5011720;28;20188;-72
2024/01/22 01:41:55;;;;;;;4.00;3.70;;;7.60;1.00;;;;;;5010993;28;20198;-73
2024/01/22 01:44:20;;;;;;;4.27;3.97;;;7.70;99.90;;;;;;5013038;28;20168;-73
2024/01/22 01:46:46;;;;;;;4.20;3.90;;;7.70;1.00;;;;;;5023661;28;20218;-72
2024/01/22 01:49:14;;;;;;;3.73;3.53;;;7.70;1.00;;;;;;5031511;28;20257;-73
2024/01/22 01:51:39;;;;;;;3.87;3.63;;;7.70;1.00;;;;;;5031780;28;20177;-73
2024/01/22 01:54:08;;;;;;;7.77;3.73;;;7.80;1.00;;;;;;5014524;28;20212;-72
2024/01/22 01:56:33;;;;;;;4.23;3.90;;;7.80;1.00;;;;;;5011654;28;20168;-73
2024/01/22 01:59:01;;;;;;;4.10;3.80;;;7.90;1.00;;;;;;5011007;28;20258;-71
2024/01/22 02:01:26;;;;;;;4.07;3.77;;;7.90;1.00;;;;;;5011323;28;20203;-70
2024/01/22 02:03:52;;;;;;;4.13;3.73;;;8.00;1.00;;;;;;5011151;28;20582;-73
2024/01/22 02:06:18;;;;;;;4.00;3.70;;;8.00;99.90;;;;;;5011186;28;20172;-73
2024/01/22 02:08:51;;;;;;;5.87;4.13;;;8.00;99.90;;;;;;5027439;28;20203;-71
2024/01/22 02:11:19;;;;;;;4.00;3.70;;;8.10;99.90;;;;;;5030831;28;20175;-72
2024/01/22 02:13:45;;;;;;;4.40;4.20;;;8.10;99.90;;;;;;5016082;28;20218;-73
2024/01/22 02:16:11;;;;;;;3.83;3.60;;;8.10;37.30;;;;;;5011564;28;20251;-72
2024/01/22 02:18:36;;;;;;;4.00;3.80;;;8.10;15.40;;;;;;5011206;28;20640;-72
2024/01/22 02:21:02;;;;;;;4.03;3.70;;;8.10;1.00;;;;;;5009738;28;20169;-74
2024/01/22 02:23:28;;;;;;;4.30;3.70;;;8.10;1.00;;;;;;5011266;28;20671;-73
2024/01/22 02:25:53;;;;;;;4.27;3.97;;;8.10;1.00;;;;;;5010915;28;20535;-73
2024/01/22 02:28:19;;;;;;;3.70;3.50;;;8.10;1.00;;;;;;5019267;28;20282;-72
2024/01/22 02:30:44;;;;;;;4.00;3.80;;;8.10;1.00;;;;;;5036545;28;20625;-73
2024/01/22 02:33:10;;;;;;;5.07;3.63;;;8.20;1.00;;;;;;5021308;28;20180;-72
2024/01/22 02:35:35;;;;;;;3.80;3.50;;;8.20;1.00;;;;;;5016932;28;20600;-72
2024/01/22 02:38:01;;;;;;;4.07;3.67;;;8.20;1.00;;;;;;5021390;28;20230;-73
2024/01/22 02:40:27;;;;;;;3.60;3.40;;;8.20;1.00;;;;;;5027239;28;20206;-72
2024/01/22 02:42:52;;;;;;;3.73;3.53;;;8.20;1.00;;;;;;5039590;28;20167;-72
2024/01/22 02:45:18;;;;;;;4.03;3.70;;;8.30;1.00;;;;;;5038095;28;20672;-72
2024/01/22 02:47:44;;;;;;;3.80;3.60;;;8.20;1.00;;;;;;5020229;28;20220;-72
2024/01/22 02:50:09;;;;;;;3.80;3.50;;;8.30;1.00;;;;;;5014129;28;20199;-72
2024/01/22 02:52:35;;;;;;;3.50;3.30;;;8.20;1.00;;;;;;5015536;28;20184;-72
2024/01/22 02:55:00;;;;;;;3.90;3.70;;;8.30;1.00;;;;;;5015353;28;20203;-72
2024/01/22 02:57:26;;;;;;;3.90;3.50;;;8.30;1.00;;;;;;5014609;28;20255;-72
2024/01/22 02:59:52;;;;;;;4.60;3.20;;;8.30;77.70;;;;;;5013996;28;20172;-73
2024/01/22 03:02:17;;;;;;;3.70;3.50;;;8.40;1.00;;;;;;5015447;28;20184;-72
2024/01/22 03:04:43;;;;;;;3.57;3.30;;;8.40;1.00;;;;;;5020664;28;20181;-73
2024/01/22 03:07:09;;;;;;;4.10;3.70;;;8.50;1.00;;;;;;5019514;28;20263;-73
2024/01/22 03:09:35;;;;;;;3.63;3.40;;;8.60;1.00;;;;;;5018489;28;20238;-72
2024/01/22 03:12:01;;;;;;;3.60;3.40;;;8.60;1.00;;;;;;5023871;28;20221;-73
2024/01/22 03:14:26;;;;;;;3.93;3.63;;;8.50;99.90;;;;;;5034706;28;20301;-74
2024/01/22 03:16:52;;;;;;;3.87;3.60;;;8.60;1.00;;;;;;5033572;28;20254;-74
2024/01/22 03:19:18;;;;;;;4.17;3.97;;;8.50;1.00;;;;;;5033849;28;20195;-73
2024/01/22 03:21:43;;;;;;;3.80;3.60;;;8.60;1.00;;;;;;5033773;28;20274;-73
2024/01/22 03:24:09;;;;;;;4.10;3.57;;;8.60;1.00;;;;;;5033694;28;20257;-73
2024/01/22 03:26:34;;;;;;;3.60;3.30;;;8.60;1.00;;;;;;5032799;28;20548;-73
2024/01/22 03:29:00;;;;;;;3.80;3.50;;;8.70;1.00;;;;;;5032508;28;20199;-73
2024/01/22 03:31:29;;;;;;;3.70;3.40;;;8.70;1.00;;;;;;5033613;28;20175;-73
2024/01/22 03:33:55;;;;;;;3.97;3.60;;;8.70;1.00;;;;;;5033278;28;20195;-74
2024/01/22 03:36:22;;;;;;;3.77;3.47;;;8.80;1.00;;;;;;5034041;28;20534;-74
2024/01/22 03:38:48;;;;;;;3.43;3.23;;;8.80;1.00;;;;;;5033348;28;20192;-74
2024/01/22 03:41:14;;;;;;;3.60;3.30;;;8.80;1.00;;;;;;5032873;28;20611;-73
2024/01/22 03:43:43;;;;;;;4.13;3.40;;;8.80;1.00;;;;;;5013566;28;20180;-73
2024/01/22 03:46:10;;;;;;;3.10;3.00;;;8.80;1.00;;;;;;5013093;28;20207;-73
2024/01/22 03:48:36;;;;;;;3.30;3.17;;;8.80;99.90;;;;;;5012770;28;20288;-73
2024/01/22 03:51:02;;;;;;;3.40;3.20;;;8.80;99.90;;;;;;5029927;28;20229;-73
2024/01/22 03:53:27;;;;;;;3.90;3.70;;;8.80;99.90;;;;;;5037949;28;20203;-72
2024/01/22 03:55:53;;;;;;;3.40;3.20;;;8.90;99.90;;;;;;5036390;28;20171;-73
2024/01/22 03:58:19;;;;;;;3.60;3.40;;;9.00;99.90;;;;;;5038326;28;20219;-73
2024/01/22 04:00:44;;;;;;;3.40;3.20;;;8.90;99.90;;;;;;5036088;28;20361;-73
2024/01/22 04:03:10;;;;;;;3.40;3.20;;;8.90;99.90;;;;;;5036637;28;20207;-73
2024/01/22 04:05:37;;;;;;;3.50;3.30;;;8.80;29.60;;;;;;5032989;28;20178;-73
2024/01/22 04:08:03;;;;;;;3.30;3.03;;;8.70;1.00;;;;;;5034083;28;20274;-73
2024/01/22 04:10:28;;;;;;;3.40;3.30;;;8.60;99.90;;;;;;5033620;28;20266;-73
2024/01/22 04:12:57;;;;;;;3.67;3.37;;;8.60;99.90;;;;;;5034038;28;20171;-74
2024/01/22 04:15:25;;;;;;;3.70;3.50;;;8.60;1.00;;;;;;5034440;28;20710;-72
2024/01/22 04:17:51;;;;;;;3.57;3.40;;;8.60;1.00;;;;;;5032284;28;20223;-73
2024/01/22 04:20:17;;;;;;;3.53;3.33;;;8.60;1.00;;;;;;5032380;28;20199;-73
2024/01/22 04:22:42;;;;;;;3.73;3.53;;;8.50;1.00;;;;;;5028136;28;20172;-73
2024/01/22 04:25:08;;;;;;;3.30;3.20;;;8.40;15.40;;;;;;5012402;28;20192;-73
2024/01/22 04:27:34;;;;;;;3.80;3.60;;;8.50;57.70;;;;;;5012581;28;20168;-72
2024/01/22 04:30:00;;;;;;;3.60;3.30;;;8.50;99.60;;;;;;5012356;28;20202;-74
2024/01/22 04:32:25;;;;;;;3.60;3.30;;;8.40;99.90;;;;;;5012595;28;20187;-73
2024/01/22 04:34:52;;;;;;;3.50;3.30;;;8.50;99.90;;;;;;5012202;28;20271;-74
2024/01/22 04:37:17;;;;;;;3.90;3.50;;;8.40;99.90;;;;;;5014561;28;20175;-73
2024/01/22 04:39:43;;;;;;;3.60;3.40;;;8.50;99.90;;;;;;5031986;28;20198;-72
2024/01/22 04:42:09;;;;;;;3.90;3.53;;;8.40;99.90;;;;;;5031953;28;20172;-72
2024/01/22 04:44:35;;;;;;;3.60;3.30;;;8.40;99.90;;;;;;5018202;28;20196;-73
2024/01/22 04:47:01;;;;;;;3.53;3.33;;;8.40;99.90;;;;;;5012243;28;20180;-73
2024/01/22 04:49:27;;;;;;;3.90;3.60;;;8.40;99.90;;;;;;5012070;28;20283;-74
2024/01/22 04:51:52;;;;;;;3.70;3.50;;;8.50;99.90;;;;;;5026365;28;20563;-73
2024/01/22 04:54:18;;;;;;;3.67;3.47;;;8.50;99.90;;;;;;5031701;28;20203;-73
2024/01/22 04:56:45;;;;;;;3.20;3.10;;;8.50;99.90;;;;;;5032504;28;20171;-73
2024/01/22 04:59:11;;;;;;;3.57;3.37;;;8.50;99.90;;;;;;5031183;28;20190;-73
2024/01/22 05:01:37;;;;;;;3.50;3.30;;;8.50;99.90;;;;;;5031770;28;20623;-73
2024/01/22 05:04:03;;;;;;;3.67;3.37;;;8.50;99.90;;;;;;5031407;28;20179;-73
2024/01/22 05:06:29;;;;;;;3.33;3.13;;;8.50;99.90;;;;;;5018057;28;20179;-74
2024/01/22 05:08:55;;;;;;;3.63;3.43;;;8.60;99.90;;;;;;5011669;28;20698;-74
2024/01/22 05:11:21;;;;;;;3.30;3.10;;;8.60;99.90;;;;;;5011891;28;20180;-74
2024/01/22 05:13:54;;;;;;;4.43;4.20;;;8.60;99.90;;;;;;5011715;28;20571;-74
2024/01/22 05:16:21;;;;;;;4.23;3.83;;;8.60;99.90;;;;;;5011883;28;20172;-73
2024/01/22 05:18:48;;;;;;;4.03;3.80;;;8.70;99.90;;;;;;5017976;28;20566;-73
2024/01/22 05:21:14;;;;;;;3.60;3.40;;;8.60;99.90;;;;;;5031267;28;20176;-73
2024/01/22 05:23:40;;;;;;;3.30;3.10;;;8.70;99.90;;;;;;5031525;28;20179;-73
2024/01/22 05:26:07;;;;;;;3.43;3.23;;;8.70;99.90;;;;;;5029517;28;20561;-73
2024/01/22 05:28:33;;;;;;;3.37;3.27;;;8.80;99.90;;;;;;5028665;28;20293;-74
2024/01/22 05:31:00;;;;;;;3.27;3.07;;;8.90;99.90;;;;;;5031231;28;20545;-74
2024/01/22 05:33:26;;;;;;;3.50;3.30;;;8.90;99.90;;;;;;5031804;28;20182;-73
2024/01/22 05:35:52;;;;;;;3.37;3.17;;;8.90;99.90;;;;;;5033113;28;20179;-73
2024/01/22 05:38:17;;;;;;;3.40;3.20;;;8.90;99.90;;;;;;5033183;28;20214;-72
2024/01/22 05:40:43;;;;;;;3.80;3.50;;;9.00;99.90;;;;;;5031307;28;20175;-72
2024/01/22 05:43:08;;;;;;;3.33;2.90;;;9.00;99.90;;;;;;5015063;28;20211;-73
2024/01/22 05:45:34;;;;;;;3.90;3.50;;;9.10;99.90;;;;;;5011270;28;20180;-73
2024/01/22 05:48:00;;;;;;;3.20;3.10;;;9.10;99.90;;;;;;5020229;28;20640;-73
2024/01/22 05:50:25;;;;;;;3.80;3.00;;;9.20;99.90;;;;;;5011136;28;20245;-73
2024/01/22 05:52:51;;;;;;;3.10;3.00;;;9.20;99.90;;;;;;5011273;28;20191;-73
2024/01/22 05:55:16;;;;;;;5.20;4.93;;;9.30;99.90;;;;;;5011043;28;20294;-72
2024/01/22 05:57:42;;;;;;;3.27;3.13;;;9.60;99.90;;;;;;5011413;28;20627;-73
2024/01/22 06:00:13;;;;;;;5.03;4.80;;;9.70;44.20;;;;;;5010966;28;20172;-73
2024/01/22 06:02:42;;;;;;;3.00;2.80;;;9.80;12.10;;;;;;5012384;28;20648;-73
2024/01/22 06:05:11;;;;;;;3.63;3.40;;;10.00;1.00;;;;;;5011121;28;20184;-74
2024/01/22 06:07:37;;;;;;;2.80;2.70;;;10.10;1.00;;;;;;5011157;28;20263;-73
2024/01/22 06:10:05;;;;;;;3.27;2.97;;;10.20;1.00;;;;;;5011379;28;20752;-73
2024/01/22 06:12:30;;;;;;;2.90;2.70;;;10.20;1.00;;;;;;5015291;28;20640;-73
2024/01/22 06:14:57;;;;;;;3.10;2.90;;;10.20;1.00;;;;;;5024793;28;20212;-73
2024/01/22 06:17:23;;;;;;;2.70;2.60;;;10.30;1.00;;;;;;5034237;28;20172;-73
2024/01/22 06:19:49;;;;;;;3.00;2.80;;;10.30;1.00;;;;;;5034669;28;20174;-73
2024/01/22 06:22:15;;;;;;;2.80;2.60;;;10.30;1.00;;;;;;5034535;28;20199;-72
2024/01/22 06:24:40;;;;;;;2.80;2.60;;;10.40;99.90;;;;;;5033199;28;20678;-73
2024/01/22 06:27:06;;;;;;;2.80;2.70;;;10.50;99.90;;;;;;5034435;28;20204;-73
2024/01/22 06:29:35;;;;;;;2.90;2.70;;;10.50;99.90;;;;;;5025036;28;20569;-73
2024/01/22 06:32:01;;;;;;;2.80;2.70;;;10.50;99.90;;;;;;5014695;28;20176;-74
2024/01/22 06:34:26;;;;;;;2.70;2.60;;;10.50;99.90;;;;;;5014370;28;20291;-72
2024/01/22 06:36:52;;;;;;;2.67;2.57;;;10.60;99.90;;;;;;5015009;28;20251;-73
2024/01/22 06:39:17;;;;;;;2.80;2.70;;;10.50;99.90;;;;;;5014280;28;20554;-74
2024/01/22 06:41:44;;;;;;;2.60;2.50;;;10.50;99.90;;;;;;5029112;28;20225;-72
2024/01/22 06:44:09;;;;;;;3.07;2.87;;;10.60;99.90;;;;;;5034108;28;20249;-73
2024/01/22 06:46:35;;;;;;;3.20;3.00;;;10.60;99.90;;;;;;5034263;28;20373;-72
2024/01/22 06:49:01;;;;;;;2.70;2.50;;;10.70;99.90;;;;;;5033718;28;20203;-72
2024/01/22 06:51:29;;;;;;;2.77;2.67;;;10.70;99.90;;;;;;5034203;28;20642;-73
2024/01/22 06:53:54;;;;;;;2.70;2.60;;;10.80;1.00;;;;;;5034359;28;20234;-72
2024/01/22 06:56:20;;;;;;;3.03;2.93;;;10.90;1.00;;;;;;5022393;28;20184;-72
2024/01/22 06:58:46;;;;;;;2.60;2.50;;;11.00;1.00;;;;;;5018817;28;20195;-72
2024/01/22 07:01:11;;;;;;;2.60;2.40;;;11.10;1.00;;;;;;5015526;28;20691;-72
2024/01/22 07:03:37;;;;;;;2.80;2.70;;;11.10;99.90;;;;;;5018518;28;20183;-72
2024/01/22 07:06:03;;;;;;;3.00;2.80;;;11.20;99.90;;;;;;5017519;28;20247;-71
2024/01/22 07:08:28;;;;;;;2.63;2.50;;;11.40;1.00;;;;;;5022915;28;20222;-72
2024/01/22 07:10:54;;;;;;;3.67;2.53;;;11.50;99.90;;;;;;5036689;28;20750;-73
2024/01/22 07:13:20;;;;;;;2.80;2.70;;;11.50;99.90;;;;;;5036783;28;20287;-73
2024/01/22 07:15:45;;;;;;;2.60;2.50;;;11.50;25.50;;;;;;5034613;28;20172;-73
2024/01/22 07:18:11;;;;;;;2.80;2.60;;;11.50;1.00;;;;;;5013615;28;20219;-74
2024/01/22 07:20:36;;;;;;;2.90;2.60;;;11.50;1.00;;;;;;5025115;28;20228;-73
2024/01/22 07:23:02;;;;;;;2.87;2.60;;;11.40;1.00;;;;;;5033195;28;20666;-75
2024/01/22 07:25:34;;;;;;;2.60;2.50;;;11.40;1.00;;;;;;5033317;28;20300;-75
2024/01/22 07:28:00;;;;;;;2.63;2.53;;;11.50;1.00;;;;;;5029316;28;20193;-73
2024/01/22 07:30:25;;;;;;;2.73;2.63;;;11.40;1.60;;;;;;5013329;28;20523;-73
2024/01/22 07:32:51;;;;;;;2.80;2.70;;;11.40;90.10;;;;;;5013536;28;20179;-73
2024/01/22 07:35:16;;;;;;;2.70;2.60;;;11.50;48.70;;;;;;5013826;28;20294;-75
2024/01/22 07:37:46;;;;;;;3.43;3.23;;;11.60;99.90;;;;;;5015806;28;20565;-76
2024/01/22 07:40:12;;;;;;;2.80;2.60;;;11.60;99.90;;;;;;5017009;28;20180;-73
2024/01/22 07:42:39;;;;;;;2.87;2.67;;;11.70;99.90;;;;;;5017778;28;20179;-73
2024/01/22 07:45:06;;;;;;;2.60;2.50;;;11.70;1.00;;;;;;5013815;28;20573;-73
2024/01/22 07:47:35;;;;;;;2.97;2.80;;;11.70;1.00;;;;;;5014652;28;20179;-72
2024/01/22 07:50:10;;;;;;;3.10;2.90;;;11.70;56.10;;;;;;5032573;28;20622;-73
2024/01/22 07:52:36;;;;;;;2.83;2.60;;;11.70;57.40;;;;;;5033012;28;20183;-73
2024/01/22 07:55:02;;;;;;;2.60;2.50;;;11.70;99.90;;;;;;5032752;28;20199;-73
2024/01/22 07:57:29;;;;;;;3.60;2.50;;;11.70;99.90;;;;;;5031258;28;20171;-71
2024/01/22 07:59:54;;;;;;;2.47;2.37;;;11.70;1.00;;;;;;5032736;28;20553;-71
2024/01/22 08:02:20;;;;;;;3.10;2.90;;;11.60;1.00;;;;;;5031088;28;22072;-70
2024/01/22 08:04:45;;;;;;;2.50;2.40;;;11.60;99.90;;;;;;5032574;28;20322;-72
2024/01/22 08:07:11;;;;;;;3.20;3.00;;;11.50;96.10;;;;;;5032603;28;20215;-70
2024/01/22 08:09:37;;;;;;;3.90;3.60;;;11.40;1.00;;;;;;5032502;28;20266;-69
2024/01/22 08:12:03;;;;;;;3.43;3.23;;;11.20;1.00;;;;;;5032409;28;20811;-71
2024/01/22 08:14:33;;;;;;;4.10;3.70;;;11.10;1.00;;;;;;5032712;28;20602;-71
2024/01/22 08:16:59;;;;;;;4.50;3.47;;;11.20;1.00;;;;;;5032297;28;20596;-72
2024/01/22 08:19:26;;;;;;;3.60;3.20;;;11.10;99.90;;;;;;5035711;28;20218;-74
2024/01/22 08:21:52;;;;;;;3.13;2.93;;;11.20;99.90;;;;;;5033110;28;20186;-73
2024/01/22 08:24:19;;;;;;;3.53;3.20;;;11.20;99.90;;;;;;5011322;28;20180;-73
2024/01/22 08:26:45;;;;;;;2.60;2.50;;;11.30;1.00;;;;;;5012583;28;20261;-70
2024/01/22 08:29:11;;;;;;;3.13;2.90;;;11.40;1.00;;;;;;5016284;28;20237;-70
2024/01/22 08:31:37;;;;;;;3.20;3.00;;;11.40;1.00;;;;;;5021350;28;20189;-71
2024/01/22 08:34:03;;;;;;;2.90;2.70;;;11.50;1.00;;;;;;5031178;28;20199;-70
2024/01/22 08:36:29;;;;;;;3.03;2.83;;;11.40;1.00;;;;;;5014918;28;20172;-71
2024/01/22 08:38:54;;;;;;;3.50;2.80;;;11.30;1.00;;;;;;5012265;28;20206;-73
2024/01/22 08:41:23;;;;;;;2.90;2.80;;;11.30;22.50;;;;;;5011953;28;20172;-73
2024/01/22 08:43:48;;;;;;;3.10;2.80;;;11.30;4.60;;;;;;5012354;28;20172;-73
2024/01/22 08:46:14;;;;;;;3.20;2.80;;;11.40;1.00;;;;;;5012129;28;20255;-72
2024/01/22 08:48:39;;;;;;;3.20;2.97;;;11.40;1.00;;;;;;5027817;28;20196;-73
2024/01/22 08:51:05;;;;;;;3.10;2.90;;;11.40;1.00;;;;;;5031500;28;20191;-73
2024/01/22 08:53:30;;;;;;;3.30;3.03;;;11.40;1.00;;;;;;5031756;28;20227;-72
2024/01/22 08:55:56;;;;;;;3.17;2.97;;;11.40;99.90;;;;;;5027154;28;20232;-72
2024/01/22 08:58:22;;;;;;;3.07;2.87;;;11.50;1.00;;;;;;5024473;28;20196;-72
2024/01/22 09:00:48;;;;;;;2.97;2.77;;;11.50;1.00;;;;;;5024124;28;20182;-72
2024/01/22 09:03:13;;;;;;;3.00;2.80;;;11.50;1.00;;;;;;5011750;28;20323;-73
2024/01/22 09:05:39;;;;;;;3.70;2.70;;;11.60;99.90;;;;;;5011875;28;20663;-73
2024/01/22 09:08:05;;;;;;;3.53;2.80;;;11.70;20.40;;;;;;5011343;28;20204;-73
2024/01/22 09:10:31;;;;;;;4.27;2.90;;;11.80;1.00;;;;;;5010687;28;20271;-73
2024/01/22 09:12:56;;;;;;;4.87;3.00;;;11.90;99.90;;;;;;5010327;28;20499;-72
2024/01/22 09:15:22;;;;;;;5.30;3.83;;;12.10;25.10;;;;;;5010646;28;20226;-74
2024/01/22 09:17:48;;;;;;;3.47;3.20;;;12.20;1.00;;;;;;5025233;28;20214;-73
2024/01/22 09:20:15;;;;;;;6.47;3.83;;;12.40;1.00;;;;;;5030041;28;20171;-73
2024/01/22 09:22:41;;;;;;;3.20;3.00;;;12.40;1.00;;;;;;5030405;28;20659;-73
2024/01/22 09:25:08;;;;;;;6.57;3.50;;;12.50;1.00;;;;;;5030487;28;20544;-72
2024/01/22 09:27:34;;;;;;;5.00;4.20;;;12.50;99.90;;;;;;5031301;28;20545;-74
2024/01/22 09:29:59;;;;;;;8.33;3.20;;;12.60;99.90;;;;;;5021864;28;20263;-73
2024/01/22 09:32:25;;;;;;;4.63;3.10;;;12.70;99.90;;;;;;5011473;28;20183;-71
2024/01/22 09:34:51;;;;;;;6.70;5.13;;;12.80;99.90;;;;;;5012195;28;20200;-73
2024/01/22 09:37:17;;;;;;;4.77;3.23;;;12.90;99.90;;;;;;5010555;28;20591;-73
2024/01/22 09:39:44;;;;;;;8.40;5.23;;;13.00;99.90;;;;;;5012817;28;20639;-72
2024/01/22 09:42:12;;;;;;;4.33;3.30;;;13.00;99.90;;;;;;5015946;28;20546;-72
2024/01/22 09:44:40;;;;;;;5.17;3.10;;;13.00;99.90;;;;;;5019723;28;20274;-73
2024/01/22 09:47:07;;;;;;;3.50;3.20;;;13.10;99.90;;;;;;5035342;28;20176;-72
2024/01/22 09:49:32;;;;;;;6.80;3.33;;;13.20;99.90;;;;;;5035165;28;20249;-73
2024/01/22 09:51:58;;;;;;;4.90;3.37;;;13.30;99.90;;;;;;5035687;28;20203;-72
2024/01/22 09:54:28;;;;;;;6.50;2.80;;;13.30;99.90;;;;;;5035072;28;20265;-72
2024/01/22 09:56:55;;;;;;;6.70;3.30;;;13.30;99.90;;;;;;5034055;28;20239;-73
2024/01/22 09:59:25;;;;;;;5.30;3.10;;;13.30;99.90;;;;;;5015205;28;20204;-72
2024/01/22 10:01:52;;;;;;;3.60;3.30;;;13.20;99.90;;;;;;5015745;28;20187;-72
2024/01/22 10:04:18;;;;;;;4.60;3.20;;;13.20;99.90;;;;;;5015520;28;20175;-72
2024/01/22 10:06:46;;;;;;;3.83;2.97;;;13.30;99.90;;;;;;5015631;28;20551;-72
2024/01/22 10:09:17;;;;;;;3.83;3.10;;;13.20;99.90;;;;;;5015255;28;20220;-72
2024/01/22 10:11:43;;;;;;;5.30;3.20;;;13.30;99.90;;;;;;5017060;28;20179;-72
2024/01/22 10:14:09;;;;;;;3.97;3.40;;;13.20;99.90;;;;;;5035844;28;20195;-73
2024/01/22 10:16:38;;;;;;;7.63;3.90;;;13.30;99.90;;;;;;5035304;28;20254;-72
2024/01/22 10:19:06;;;;;;;3.63;2.70;;;13.30;99.90;;;;;;5035019;28;20195;-73
2024/01/22 10:21:36;;;;;;;7.70;3.00;;;13.30;99.90;;;;;;5033917;28;20717;-74
2024/01/22 10:24:07;;;;;;;3.60;3.17;;;13.30;99.90;;;;;;5034069;28;20203;-74
2024/01/22 10:26:34;;;;;;;6.43;6.03;;;13.20;99.90;;;;;;5018919;28;20180;-74
2024/01/22 10:29:22;;;;;;;4.97;2.77;;;13.20;99.90;;;;;;5015075;28;20294;-73
2024/01/22 10:31:55;;;;;;;2.60;2.40;;;13.20;99.90;;;;;;5016940;28;20176;-72
2024/01/22 10:34:25;;;;;;;5.00;2.50;;;13.20;99.90;;;;;;5034471;28;20857;-73
2024/01/22 10:37:07;;;;;;;4.20;2.97;;;13.20;99.90;;;;;;5021963;28;20267;-72
2024/01/22 10:39:38;;;;;;;2.60;2.40;;;13.10;99.90;;;;;;5014504;28;20188;-73
2024/01/22 10:42:11;;;;;;;2.67;2.47;;;13.20;99.90;;;;;;5014690;28;20172;-71
2024/01/22 10:44:42;;;;;;;2.63;2.40;;;13.10;99.90;;;;;;5014334;28;20191;-73
2024/01/22 10:47:09;;;;;;;2.70;2.50;;;13.20;99.90;;;;;;5014556;28;20247;-71
2024/01/22 10:49:35;;;;;;;2.57;2.37;;;13.20;99.90;;;;;;5014265;28;20302;-72
2024/01/22 10:52:03;;;;;;;2.60;2.40;;;13.20;99.90;;;;;;5015629;28;20188;-74
2024/01/22 10:54:35;;;;;;;2.40;2.30;;;13.20;99.90;;;;;;5013097;28;20679;-72
2024/01/22 10:57:14;;;;;;;2.97;2.50;;;13.20;99.90;;;;;;5014096;28;20620;-71
2024/01/22 10:59:46;;;;;;;2.50;2.40;;;13.20;99.90;;;;;;5014943;28;20195;-74
2024/01/22 11:02:22;;;;;;;20.17;18.93;;;13.10;99.90;;;;;;5016006;28;20184;-74
2024/01/22 11:04:52;;;;;;;2.90;2.60;;;13.10;99.90;;;;;;5017797;28;20175;-73
2024/01/22 11:07:24;;;;;;;3.90;2.53;;;13.00;99.90;;;;;;5017068;28;20188;-72
2024/01/22 11:09:53;;;;;;;3.73;3.50;;;13.00;99.90;;;;;;5016326;28;20683;-73
2024/01/22 11:12:21;;;;;;;4.00;2.70;;;13.00;99.90;;;;;;5021341;28;20176;-73
2024/01/22 11:14:47;;;;;;;3.87;2.60;;;13.00;99.90;;;;;;5037454;28;20203;-74
2024/01/22 11:17:15;;;;;;;2.77;2.57;;;13.00;99.90;;;;;;5035592;28;20176;-74
2024/01/22 11:19:40;;;;;;;3.07;2.87;;;12.90;99.90;;;;;;5023435;28;20219;-73
2024/01/22 11:22:15;;;;;;;2.40;2.30;;;12.90;1.00;;;;;;5017725;28;20176;-74
2024/01/22 11:24:41;;;;;;;2.97;2.87;;;12.80;1.00;;;;;;5018009;28;20277;-73
2024/01/22 11:27:07;;;;;;;2.70;2.50;;;12.70;1.00;;;;;;5016746;28;20172;-73
2024/01/22 11:29:34;;;;;;;3.00;2.37;;;12.70;1.00;;;;;;5018584;28;20223;-74
2024/01/22 11:32:27;;;;;;;2.40;2.30;;;12.60;1.00;;;;;;5018567;28;20498;-74
2024/01/22 11:34:57;;;;;;;2.30;2.20;;;12.50;1.00;;;;;;5035233;28;20213;-73
2024/01/22 11:37:36;;;;;;;2.80;2.60;;;12.30;99.90;;;;;;5038479;28;20667;-74
2024/01/22 11:40:03;;;;;;;2.40;2.30;;;12.30;99.90;;;;;;5038930;28;20450;-73
2024/01/22 11:42:30;;;;;;;2.50;2.20;;;12.20;1.00;;;;;;5037406;28;20182;-74
2024/01/22 11:44:58;;;;;;;2.30;2.20;;;12.10;1.00;;;;;;5036622;28;20183;-73
2024/01/22 11:47:26;;;;;;;2.30;2.20;;;12.10;1.00;;;;;;5025906;28;20248;-73
2024/01/22 11:50:04;;;;;;;3.40;3.10;;;12.00;1.00;;;;;;5017579;28;20246;-73
2024/01/22 11:52:30;;;;;;;2.67;2.47;;;12.00;1.00;;;;;;5017339;28;20179;-72
2024/01/22 11:54:57;;;;;;;4.37;2.50;;;12.00;1.00;;;;;;5018679;28;20207;-72
2024/01/22 11:57:24;;;;;;;3.87;2.60;;;12.10;1.00;;;;;;5018008;28;20175;-73
2024/01/22 12:00:05;;;;;;;5.00;2.73;;;12.10;99.90;;;;;;5016339;28;20172;-72
2024/01/22 12:02:34;;;;;;;3.20;2.80;;;12.20;99.90;;;;;;5031203;28;20187;-72
2024/01/22 12:05:10;;;;;;;5.60;2.90;;;12.20;99.90;;;;;;5037411;28;20671;-73
2024/01/22 12:07:42;;;;;;;3.83;2.73;;;12.20;99.90;;;;;;5035572;28;20639;-73
2024/01/22 12:10:21;;;;;;;4.97;2.93;;;12.30;99.90;;;;;;5033767;28;20179;-72
2024/01/22 12:12:51;;;;;;;4.70;4.37;;;12.20;1.00;;;;;;5035856;28;20179;-73
2024/01/22 12:15:16;;;;;;;3.20;3.00;;;12.00;1.00;;;;;;5023708;28;20211;-73
2024/01/22 12:17:46;;;;;;;5.10;2.90;;;12.00;1.00;;;;;;5016027;28;20200;-73
2024/01/22 12:20:12;;;;;;;3.10;2.80;;;12.00;99.90;;;;;;5015041;28;20207;-73
2024/01/22 12:22:38;;;;;;;5.07;4.00;;;12.00;63.20;;;;;;5015523;28;20319;-72
2024/01/22 12:25:06;;;;;;;3.37;3.07;;;12.00;99.90;;;;;;5021540;28;20225;-73
2024/01/22 12:27:33;;;;;;;3.40;2.93;;;12.00;99.90;;;;;;5034539;28;20190;-72
2024/01/22 12:30:00;;;;;;;6.03;3.27;;;12.10;57.90;;;;;;5035576;28;20175;-72
2024/01/22 12:32:26;;;;;;;4.77;2.87;;;12.30;1.00;;;;;;5034827;28;20172;-72
2024/01/22 12:34:58;;;;;;;2.93;2.70;;;12.60;1.00;;;;;;5034456;28;20208;-71
2024/01/22 12:37:28;;;;;;;3.90;3.00;;;12.90;99.90;;;;;;5033836;28;20170;-70
2024/01/22 12:40:15;;;;;;;3.17;2.67;;;13.20;99.90;;;;;;5027510;28;20207;-70
2024/01/22 12:42:57;;;;;;;6.87;3.27;;;13.40;99.90;;;;;;5012288;28;20180;-69
2024/01/22 12:45:23;;;;;;;5.93;3.10;;;13.30;99.90;;;;;;5012215;28;20172;-71
2024/01/22 12:47:49;;;;;;;6.40;4.37;;;13.50;99.90;;;;;;5029763;28;20235;-71
2024/01/22 12:50:18;;;;;;;5.60;5.10;;;13.60;76.80;;;;;;5031511;28;20195;-71
2024/01/22 12:52:44;;;;;;;5.77;3.10;;;13.70;35.00;;;;;;5021857;28;20184;-72
2024/01/22 12:55:16;;;;;;;12.03;3.20;;;13.70;23.30;;;;;;5012058;28;20200;-71